Terminal Aerodrome Forecast
Issued by NWS Dodge City, KS

Home | Current Version | Previous Version | Graphics & Text | Print | Product List | Glossary Off
Versions: 1 2 3 4 5 6 7 8 9 10 11 12 13 14 15 16 17 18 19

000
FTUS43 KDDC 201120
TAFDDC
TAF
KDDC 201120Z 2012/2112 14013G22KT P6SM SCT120
     FM202100 13013G22KT P6SM -RA OVC060
     FM210100 12013G21KT P6SM -RA OVC030
     FM210300 10013G20KT P6SM -RA OVC015=

USA.gov is the U.S. government's official web portal to all federal, state and local government web resources and services.